createdAt,value
2019-04-25T00:00:44.753Z,99818.05
2019-04-25T00:05:47.218Z,99811.77
2019-04-25T00:10:49.671Z,99812.53
2019-04-25T00:15:52.145Z,99819.98
2019-04-25T00:20:57.458Z,99822.52
2019-04-25T00:26:01.361Z,99833.30
2019-04-25T00:31:02.521Z,99833.67
2019-04-25T00:36:04.968Z,99831.53
2019-04-25T00:41:07.438Z,99828.80
2019-04-25T00:46:11.339Z,99821.94
2019-04-25T00:51:12.336Z,99816.67
2019-04-25T00:56:14.793Z,99822.94
2019-04-25T01:01:35.485Z,99829.98
2019-04-25T01:06:37.937Z,99842.92
2019-04-25T01:11:40.389Z,99850.55
2019-04-25T01:16:42.846Z,99847.42
2019-04-25T01:21:45.602Z,99844.69
2019-04-25T01:26:47.732Z,99840.39
2019-04-25T01:31:50.179Z,99840.95
2019-04-25T01:36:53.225Z,99845.06
2019-04-25T01:41:56.075Z,99833.31
2019-04-25T01:46:58.196Z,99827.25
2019-04-25T01:51:59.995Z,99835.27
2019-04-25T01:57:04.171Z,99849.78
2019-04-25T02:02:06.661Z,99841.75
2019-04-25T02:07:07.355Z,99851.36
2019-04-25T02:12:09.806Z,99862.33
2019-04-25T02:17:14.035Z,99850.94
2019-04-25T02:22:14.707Z,99855.45
2019-04-25T02:27:17.153Z,99862.89
2019-04-25T02:32:19.597Z,99865.02
2019-04-25T02:37:22.048Z,99859.76
2019-04-25T02:42:24.796Z,99864.06
2019-04-25T02:47:46.345Z,99864.64
2019-04-25T02:52:47.997Z,99850.50
2019-04-25T02:57:50.438Z,99868.48
2019-04-25T03:02:54.746Z,99885.91
2019-04-25T03:07:55.377Z,99906.14
2019-04-25T03:12:59.207Z,99904.77
2019-04-25T03:18:00.298Z,99910.27
2019-04-25T03:23:21.014Z,99912.38
2019-04-25T03:28:23.913Z,99921.88
2019-04-25T03:33:26.077Z,99925.78
2019-04-25T03:38:28.379Z,99926.92
2019-04-25T03:43:30.831Z,99920.39
2019-04-25T03:48:36.736Z,99920.59
2019-04-25T03:53:35.748Z,99911.38
2019-04-25T03:58:38.203Z,99890.20
2019-04-25T04:03:40.658Z,99868.09
2019-04-25T04:08:44.270Z,99841.06
2019-04-25T04:13:45.566Z,99842.63
2019-04-25T04:18:48.017Z,99863.02
2019-04-25T04:23:54.186Z,99864.98
2019-04-25T04:28:56.004Z,99869.30
2019-04-25T04:33:58.473Z,99883.62
2019-04-25T04:39:00.927Z,99906.33
2019-04-25T04:44:04.136Z,99939.53
2019-04-25T04:49:05.847Z,99979.77
2019-04-25T04:54:09.413Z,99997.22
2019-04-25T04:59:10.939Z,100005.78
2019-04-25T05:04:17.104Z,99999.91
2019-04-25T05:09:18.556Z,99989.69
2019-04-25T05:14:21.026Z,99984.84
2019-04-25T05:19:23.873Z,99975.14
2019-04-25T05:24:26.353Z,99960.29
2019-04-25T05:29:28.406Z,99944.21
2019-04-25T05:34:30.860Z,99925.61
2019-04-25T05:39:33.537Z,99908.95
2019-04-25T05:44:35.803Z,99900.13
2019-04-25T05:49:38.257Z,99898.55
2019-04-25T05:54:40.742Z,99902.05
2019-04-25T05:59:43.710Z,99903.93
2019-04-25T06:04:45.703Z,99917.31
2019-04-25T06:09:51.094Z,99940.52
2019-04-25T06:14:54.654Z,99944.95
2019-04-25T06:19:56.027Z,99968.47
2019-04-25T06:25:01.294Z,99975.86
2019-04-25T06:30:04.331Z,99965.83
2019-04-25T06:35:06.217Z,99971.75
2019-04-25T06:40:08.705Z,99961.63
2019-04-25T06:45:11.208Z,99964.06
2019-04-25T06:50:16.161Z,99962.69
2019-04-25T06:55:20.925Z,99960.33
2019-04-25T07:00:22.437Z,99961.83
2019-04-25T07:05:30.998Z,99959.55
2019-04-25T07:10:26.260Z,99967.25
2019-04-25T07:15:28.446Z,99975.03
2019-04-25T07:20:30.910Z,99958.70
2019-04-25T07:25:35.312Z,99944.02
2019-04-25T07:30:54.515Z,99930.50
2019-04-25T07:35:57.053Z,99936.51
2019-04-25T07:40:58.740Z,99923.98
2019-04-25T07:46:01.218Z,99927.55
2019-04-25T07:51:03.785Z,99929.25
2019-04-25T07:56:06.130Z,99921.51
2019-04-25T08:01:08.589Z,99908.91
2019-04-25T08:06:11.052Z,99918.06
2019-04-25T08:11:14.124Z,99910.55
2019-04-25T08:16:23.324Z,99915.45
2019-04-25T08:21:24.338Z,99927.56
2019-04-25T08:26:26.799Z,99935.06
2019-04-25T08:31:30.353Z,99924.14
2019-04-25T08:36:33.832Z,99921.77
2019-04-25T08:41:35.743Z,99916.38
2019-04-25T08:46:38.079Z,99911.59
2019-04-25T08:51:40.064Z,99900.58
2019-04-25T08:56:42.449Z,99885.12
2019-04-25T09:01:56.124Z,99868.83
2019-04-25T09:06:58.594Z,99879.83
2019-04-25T09:12:01.064Z,99877.58
2019-04-25T09:17:03.636Z,99874.82
2019-04-25T09:22:06.114Z,99869.67
2019-04-25T09:27:08.593Z,99856.72
2019-04-25T09:32:11.062Z,99859.39
2019-04-25T09:37:14.284Z,99856.29
2019-04-25T09:42:16.063Z,99829.64
2019-04-25T09:47:18.534Z,99806.98
2019-04-25T09:52:20.973Z,99817.49
2019-04-25T09:57:43.438Z,99791.09
2019-04-25T10:02:44.638Z,99764.89
2019-04-25T10:07:48.906Z,99750.25
2019-04-25T10:12:49.971Z,99739.95
2019-04-25T10:17:51.698Z,99731.53
2019-04-25T10:22:54.160Z,99714.13
2019-04-25T10:27:56.635Z,99702.35
2019-04-25T10:32:59.118Z,99697.37
2019-04-25T10:38:01.591Z,99690.64
2019-04-25T10:43:04.088Z,99684.84
2019-04-25T10:48:06.520Z,99685.93
2019-04-25T10:53:08.988Z,99669.97
2019-04-25T10:58:11.528Z,99672.73
2019-04-25T11:03:29.383Z,99650.94
2019-04-25T11:08:31.855Z,99632.06
2019-04-25T11:13:35.474Z,99628.52
2019-04-25T11:18:36.802Z,99607.19
2019-04-25T11:23:39.261Z,99605.99
2019-04-25T11:28:42.668Z,99602.86
2019-04-25T11:33:44.188Z,99614.30
2019-04-25T11:38:53.733Z,99600.70
2019-04-25T11:43:55.696Z,99600.69
2019-04-25T11:48:57.566Z,99602.61
2019-04-25T11:54:00.044Z,99595.83
2019-04-25T11:59:02.519Z,99599.98
2019-04-25T12:04:04.980Z,99593.74
2019-04-25T12:09:07.461Z,99591.38
2019-04-25T12:14:09.917Z,99579.81
2019-04-25T12:19:13.893Z,99571.41
2019-04-25T12:24:14.877Z,99568.16
2019-04-25T12:29:17.342Z,99550.25
2019-04-25T12:34:19.802Z,99555.27
2019-04-25T12:39:24.146Z,99537.57
2019-04-25T12:44:33.583Z,99518.05
2019-04-25T12:49:36.039Z,99517.12
2019-04-25T12:54:38.527Z,99502.98
2019-04-25T12:59:41.013Z,99502.83
2019-04-25T13:04:44.322Z,99493.11
2019-04-25T13:09:47.804Z,99486.16
2019-04-25T13:14:48.403Z,99480.36
2019-04-25T13:19:50.909Z,99474.32
2019-04-25T13:24:53.325Z,99479.89
2019-04-25T13:30:05.503Z,99467.81
2019-04-25T13:35:09.631Z,99451.81
2019-04-25T13:40:10.089Z,99455.97
2019-04-25T13:45:16.038Z,99444.02
2019-04-25T13:50:18.563Z,99438.44
2019-04-25T13:55:21.318Z,99426.42
2019-04-25T14:00:24.875Z,99423.80
2019-04-25T14:05:26.116Z,99417.27
2019-04-25T14:10:28.441Z,99402.67
2019-04-25T14:15:30.897Z,99393.31
2019-04-25T14:20:36.232Z,99381.91
2019-04-25T14:25:38.769Z,99380.69
2019-04-25T14:30:41.182Z,99368.05
2019-04-25T14:35:43.647Z,99372.48
2019-04-25T14:40:46.107Z,99372.77
2019-04-25T14:45:48.602Z,99368.89
2019-04-25T14:50:51.054Z,99369.69
2019-04-25T14:56:02.468Z,99363.78
2019-04-25T15:01:04.931Z,99354.63
2019-04-25T15:06:07.402Z,99346.30
2019-04-25T15:11:09.884Z,99355.11
2019-04-25T15:16:12.353Z,99351.38
2019-04-25T15:21:14.822Z,99355.20
2019-04-25T15:26:17.308Z,99342.52
2019-04-25T15:31:19.768Z,99338.56
2019-04-25T15:36:40.415Z,99335.14
2019-04-25T15:41:48.853Z,99324.27
2019-04-25T15:46:51.295Z,99326.42
2019-04-25T15:51:53.759Z,99311.08
2019-04-25T15:56:56.230Z,99295.31
2019-04-25T16:02:07.894Z,99306.13
2019-04-25T16:07:01.158Z,99308.11
2019-04-25T16:12:03.642Z,99316.80
2019-04-25T16:17:06.134Z,99323.63
2019-04-25T16:22:08.593Z,99317.38
2019-04-25T16:27:11.105Z,99325.23
2019-04-25T16:32:21.057Z,99320.96
2019-04-25T16:37:22.197Z,99311.80
2019-04-25T16:42:24.650Z,99317.39
2019-04-25T16:47:27.110Z,99340.77
2019-04-25T16:52:30.427Z,99342.06
2019-04-25T16:57:32.741Z,99344.56
2019-04-25T17:02:37.526Z,99360.34
2019-04-25T17:07:37.036Z,99380.33
2019-04-25T17:12:39.501Z,99383.82
2019-04-25T17:17:41.970Z,99452.02
2019-04-25T17:22:44.440Z,99478.27
2019-04-25T17:27:46.922Z,99493.75
2019-04-25T17:32:53.781Z,99506.97
2019-04-25T17:37:51.862Z,99529.65
2019-04-25T17:42:54.334Z,99538.27
2019-04-25T17:47:56.816Z,99564.92
2019-04-25T17:52:59.270Z,99589.13
2019-04-25T17:58:01.747Z,99606.75
2019-04-25T18:03:04.214Z,99614.69
2019-04-25T18:08:06.691Z,99635.13
2019-04-25T18:13:09.570Z,99667.24
2019-04-25T18:18:23.686Z,99672.84
2019-04-25T18:23:44.484Z,99685.08
2019-04-25T18:28:53.082Z,99714.78
2019-04-25T18:33:55.622Z,99727.85
2019-04-25T18:39:07.332Z,99748.11
2019-04-25T18:44:09.841Z,99773.13
2019-04-25T18:49:12.351Z,99781.00
2019-04-25T18:54:24.035Z,99799.19
2019-04-25T18:59:32.279Z,99813.47
2019-04-25T19:04:38.310Z,99821.95
2019-04-25T19:09:40.770Z,99832.89
2019-04-25T19:14:43.155Z,99840.48
2019-04-25T19:19:45.617Z,99858.28
2019-04-25T19:24:48.629Z,99859.70
2019-04-25T19:29:52.500Z,99862.06
2019-04-25T19:34:52.565Z,99886.19
2019-04-25T19:40:01.292Z,99882.56
2019-04-25T19:45:03.778Z,99896.23
2019-04-25T19:50:06.257Z,99923.19
2019-04-25T19:55:08.724Z,99936.73
2019-04-25T20:00:11.200Z,99931.30
2019-04-25T20:05:16.222Z,99929.22
2019-04-25T20:10:36.698Z,99938.28
2019-04-25T20:15:39.199Z,99940.37
2019-04-25T20:20:41.668Z,99948.67
2019-04-25T20:25:45.279Z,99958.86
2019-04-25T20:30:47.051Z,99961.45
2019-04-25T20:35:49.214Z,99941.20
2019-04-25T20:40:51.811Z,99954.63
2019-04-25T20:45:54.476Z,99975.58
2019-04-25T20:50:56.695Z,99996.88
2019-04-25T20:55:59.160Z,99991.34
2019-04-25T21:01:01.655Z,99988.13
2019-04-25T21:06:04.128Z,99994.91
2019-04-25T21:11:06.614Z,100002.20
2019-04-25T21:16:27.407Z,100006.96
2019-04-25T21:21:29.882Z,100011.41
2019-04-25T21:26:32.357Z,100024.94
2019-04-25T21:31:34.832Z,100014.45
2019-04-25T21:36:37.331Z,100000.13
2019-04-25T21:41:45.516Z,100005.61
2019-04-25T21:46:48.003Z,100008.52
2019-04-25T21:51:50.483Z,99999.90
2019-04-25T21:56:53.296Z,99977.83
2019-04-25T22:01:56.298Z,99981.98
2019-04-25T22:06:58.838Z,100000.20
2019-04-25T22:12:01.173Z,100006.05
2019-04-25T22:17:02.981Z,99989.36
2019-04-25T22:22:05.272Z,99990.02
2019-04-25T22:27:07.719Z,99997.31
2019-04-25T22:32:28.066Z,100003.00
2019-04-25T22:37:30.537Z,100012.64
2019-04-25T22:42:33.013Z,100024.91
2019-04-25T22:47:35.475Z,100023.75
2019-04-25T22:52:37.944Z,100015.98
2019-04-25T22:57:40.407Z,100027.39
2019-04-25T23:02:45.779Z,100017.95
2019-04-25T23:07:48.228Z,100010.97
2019-04-25T23:12:50.679Z,100008.22
2019-04-25T23:17:53.147Z,100022.78
2019-04-25T23:22:55.608Z,99978.56
2019-04-25T23:27:58.048Z,99968.26
2019-04-25T23:33:00.501Z,99996.08
2019-04-25T23:38:02.989Z,100007.75
2019-04-25T23:43:06.161Z,100031.56
2019-04-25T23:48:08.300Z,100036.45
2019-04-25T23:53:10.728Z,100028.09
2019-04-25T23:58:13.469Z,100025.16
